FIN4VP EFHK-LSGG
Flight info
| Callsign | FIN4VP |
|---|---|
| Flight time | 2h 51m |
| Altitude | 38000 |
| Route | VALOX Y117 ROSAX DCT LUXEM DCT LEMSI DCT DEREX DCT GORPI DCT FARCU DCT PENEK DCT TOPDI DCT IBAGA DCT DKB N869 TEDGO/N0444F370 N869 NATOR DCT LUTIX DCT BENOT |
| Aircraft | A319/M-SDE3FGHIRWY/LB1 |
Departure
| Time | 2026-05-04 08:21 |
|---|---|
| Airport | Helsinki Vantaa Airport (EFHK) |
Arrival
| Time | 2026-05-04 11:12 |
|---|---|
| Airport | Geneva International Airport (LSGG) |
| Time | Latitude | Longitude | Altitude | Speed | Heading |
|---|---|---|---|---|---|
| 2026-05-04 07:55 | 60.31702 | 24.96122 | 167 ft | 0 kts | 130° |
| 2026-05-04 08:14 | 60.31702 | 24.96121 | 167 ft | 1 kts | 130° |
| 2026-05-04 08:14 | 60.31718 | 24.96085 | 167 ft | 4 kts | 134° |
| 2026-05-04 08:16 | 60.31758 | 24.95969 | 167 ft | 0 kts | 47° |
| 2026-05-04 08:17 | 60.31758 | 24.95970 | 167 ft | 1 kts | 47° |
| 2026-05-04 08:17 | 60.31771 | 24.95998 | 167 ft | 5 kts | 47° |
| 2026-05-04 08:17 | 60.31802 | 24.96065 | 167 ft | 7 kts | 47° |
| 2026-05-04 08:17 | 60.31860 | 24.96132 | 167 ft | 9 kts | 351° |
| 2026-05-04 08:19 | 60.32334 | 24.96631 | 170 ft | 12 kts | 329° |
| 2026-05-04 08:19 | 60.32400 | 24.96551 | 175 ft | 11 kts | 328° |
| 2026-05-04 08:20 | 60.32398 | 24.96429 | 176 ft | 10 kts | 227° |
| 2026-05-04 08:20 | 60.32307 | 24.96232 | 177 ft | 48 kts | 227° |
| 2026-05-04 08:20 | 60.31915 | 24.95369 | 174 ft | 116 kts | 227° |
| 2026-05-04 08:20 | 60.31258 | 24.93913 | 354 ft | 150 kts | 228° |
| 2026-05-04 08:21 | 60.30549 | 24.92384 | 986 ft | 149 kts | 222° |
| 2026-05-04 08:21 | 60.29675 | 24.91218 | 1577 ft | 157 kts | 209° |
| 2026-05-04 08:21 | 60.28650 | 24.90098 | 1945 ft | 179 kts | 209° |
| 2026-05-04 08:21 | 60.27481 | 24.88817 | 2276 ft | 204 kts | 209° |
| 2026-05-04 08:22 | 60.26168 | 24.87372 | 2849 ft | 222 kts | 210° |
| 2026-05-04 08:22 | 60.24804 | 24.85864 | 3760 ft | 225 kts | 210° |
| 2026-05-04 08:24 | 60.14144 | 24.79242 | 10082 ft | 240 kts | 218° |
| 2026-05-04 08:24 | 60.12765 | 24.77020 | 10402 ft | 263 kts | 221° |
| 2026-05-04 08:24 | 60.11283 | 24.74597 | 10693 ft | 286 kts | 220° |
| 2026-05-04 08:24 | 60.09712 | 24.72042 | 11295 ft | 295 kts | 220° |
| 2026-05-04 08:25 | 60.08104 | 24.69440 | 12067 ft | 299 kts | 220° |
| 2026-05-04 08:25 | 60.06480 | 24.66816 | 12860 ft | 302 kts | 221° |
| 2026-05-04 08:25 | 60.04838 | 24.64171 | 13642 ft | 304 kts | 221° |
| 2026-05-04 08:25 | 60.03181 | 24.61506 | 14317 ft | 307 kts | 221° |
| 2026-05-04 08:26 | 60.01502 | 24.58815 | 15014 ft | 310 kts | 221° |
| 2026-05-04 08:27 | 59.89328 | 24.39399 | 19463 ft | 331 kts | 221° |
| 2026-05-04 08:28 | 59.87516 | 24.36527 | 20047 ft | 334 kts | 221° |
| 2026-05-04 08:28 | 59.85691 | 24.33633 | 20623 ft | 337 kts | 221° |
| 2026-05-04 08:28 | 59.83850 | 24.30715 | 21194 ft | 340 kts | 221° |
| 2026-05-04 08:28 | 59.81989 | 24.27770 | 21755 ft | 343 kts | 221° |
| 2026-05-04 08:29 | 59.80112 | 24.24807 | 22330 ft | 346 kts | 221° |
| 2026-05-04 08:29 | 59.78221 | 24.21822 | 22882 ft | 349 kts | 221° |
| 2026-05-04 08:29 | 59.76313 | 24.18819 | 23403 ft | 352 kts | 221° |
| 2026-05-04 08:31 | 59.62155 | 23.98300 | 26448 ft | 368 kts | 218° |
| 2026-05-04 08:33 | 59.47378 | 23.77116 | 29337 ft | 380 kts | 227° |
| 2026-05-04 08:33 | 59.45647 | 23.73198 | 29730 ft | 380 kts | 232° |
| 2026-05-04 08:35 | 59.33723 | 23.44919 | 32226 ft | 384 kts | 232° |
| 2026-05-04 08:35 | 59.32017 | 23.40906 | 32676 ft | 382 kts | 233° |
| 2026-05-04 08:35 | 59.30321 | 23.36922 | 33139 ft | 380 kts | 233° |
| 2026-05-04 08:35 | 59.28632 | 23.32961 | 33590 ft | 378 kts | 233° |
| 2026-05-04 08:37 | 59.17782 | 23.10422 | 35274 ft | 385 kts | 226° |
| 2026-05-04 08:37 | 59.15826 | 23.06849 | 35517 ft | 386 kts | 226° |
| 2026-05-04 08:37 | 59.13865 | 23.03270 | 35752 ft | 387 kts | 226° |
| 2026-05-04 08:38 | 59.11895 | 22.99685 | 35982 ft | 388 kts | 226° |
| 2026-05-04 08:38 | 59.09917 | 22.96092 | 36216 ft | 389 kts | 226° |
| 2026-05-04 08:38 | 59.07937 | 22.92498 | 36464 ft | 390 kts | 226° |
| 2026-05-04 08:40 | 58.94386 | 22.66549 | 37728 ft | 394 kts | 230° |
| 2026-05-04 08:40 | 58.92530 | 22.62651 | 37728 ft | 394 kts | 230° |
| 2026-05-04 08:41 | 58.88784 | 22.54920 | 37727 ft | 394 kts | 229° |
| 2026-05-04 08:41 | 58.85001 | 22.47272 | 37733 ft | 394 kts | 229° |
| 2026-05-04 08:42 | 58.81206 | 22.39644 | 37736 ft | 394 kts | 229° |
| 2026-05-04 08:42 | 58.77414 | 22.32027 | 37716 ft | 394 kts | 229° |
| 2026-05-04 08:43 | 58.73610 | 22.24408 | 37726 ft | 395 kts | 229° |
| 2026-05-04 08:43 | 58.69796 | 22.16788 | 37736 ft | 395 kts | 229° |
| 2026-05-04 08:44 | 58.65981 | 22.09176 | 37731 ft | 395 kts | 229° |
| 2026-05-04 08:46 | 58.50630 | 21.78870 | 37722 ft | 397 kts | 228° |
| 2026-05-04 08:46 | 58.46770 | 21.71312 | 37729 ft | 397 kts | 228° |
| 2026-05-04 08:47 | 58.42902 | 21.63775 | 37767 ft | 397 kts | 228° |
| 2026-05-04 08:47 | 58.39037 | 21.56250 | 37760 ft | 397 kts | 228° |
| 2026-05-04 08:48 | 58.35193 | 21.48798 | 37729 ft | 397 kts | 228° |
| 2026-05-04 08:48 | 58.31321 | 21.41317 | 37730 ft | 397 kts | 227° |
| 2026-05-04 08:49 | 58.27434 | 21.33839 | 37730 ft | 397 kts | 227° |
| 2026-05-04 08:50 | 58.13793 | 21.07794 | 37735 ft | 398 kts | 227° |
| 2026-05-04 08:51 | 58.09888 | 21.00374 | 37711 ft | 398 kts | 227° |
| 2026-05-04 08:51 | 58.05974 | 20.92963 | 37717 ft | 398 kts | 227° |
| 2026-05-04 08:52 | 58.02053 | 20.85564 | 37721 ft | 399 kts | 227° |
| 2026-05-04 08:52 | 57.98124 | 20.78188 | 37724 ft | 399 kts | 227° |
| 2026-05-04 08:54 | 57.82377 | 20.48860 | 37731 ft | 399 kts | 226° |
| 2026-05-04 08:55 | 57.78428 | 20.41556 | 37761 ft | 399 kts | 226° |
| 2026-05-04 08:55 | 57.74474 | 20.34268 | 37758 ft | 399 kts | 226° |
| 2026-05-04 09:01 | 57.32850 | 19.58810 | 37767 ft | 398 kts | 226° |
| 2026-05-04 09:01 | 57.28854 | 19.51696 | 37767 ft | 399 kts | 226° |
| 2026-05-04 09:02 | 57.24860 | 19.44593 | 37765 ft | 399 kts | 226° |
| 2026-05-04 09:02 | 57.20850 | 19.37509 | 37768 ft | 399 kts | 225° |
| 2026-05-04 09:03 | 57.16838 | 19.30432 | 37823 ft | 399 kts | 225° |
| 2026-05-04 09:03 | 57.12823 | 19.23375 | 37781 ft | 399 kts | 225° |
| 2026-05-04 09:04 | 57.08800 | 19.16328 | 37786 ft | 399 kts | 225° |
| 2026-05-04 09:04 | 57.04778 | 19.09285 | 37786 ft | 400 kts | 225° |
| 2026-05-04 09:05 | 57.00742 | 19.02259 | 37761 ft | 400 kts | 225° |
| 2026-05-04 09:05 | 56.96696 | 18.95237 | 37767 ft | 401 kts | 225° |
| 2026-05-04 09:06 | 56.92645 | 18.88210 | 37785 ft | 401 kts | 225° |
| 2026-05-04 09:08 | 56.76361 | 18.60294 | 37784 ft | 402 kts | 225° |
| 2026-05-04 09:08 | 56.72274 | 18.53324 | 37804 ft | 402 kts | 225° |
| 2026-05-04 09:09 | 56.68191 | 18.46363 | 37802 ft | 402 kts | 225° |
| 2026-05-04 09:09 | 56.64099 | 18.39417 | 37812 ft | 402 kts | 225° |
| 2026-05-04 09:10 | 56.60692 | 18.33669 | 37826 ft | 402 kts | 225° |
| 2026-05-04 09:10 | 56.56586 | 18.26764 | 37798 ft | 402 kts | 224° |
| 2026-05-04 09:11 | 56.52480 | 18.19878 | 37835 ft | 402 kts | 224° |
| 2026-05-04 09:11 | 56.48378 | 18.12998 | 37832 ft | 402 kts | 224° |
| 2026-05-04 09:12 | 56.44263 | 18.06133 | 37829 ft | 402 kts | 224° |
| 2026-05-04 09:14 | 56.27768 | 17.78825 | 37820 ft | 403 kts | 224° |
| 2026-05-04 09:14 | 56.23630 | 17.72024 | 37821 ft | 403 kts | 224° |
| 2026-05-04 09:15 | 56.19487 | 17.65243 | 37841 ft | 403 kts | 224° |
| 2026-05-04 09:15 | 56.15332 | 17.58471 | 37837 ft | 403 kts | 224° |
| 2026-05-04 09:17 | 55.96632 | 17.28169 | 37849 ft | 404 kts | 224° |
| 2026-05-04 09:18 | 55.92450 | 17.21462 | 37859 ft | 404 kts | 224° |
| 2026-05-04 09:18 | 55.88268 | 17.14767 | 37863 ft | 404 kts | 224° |
| 2026-05-04 09:19 | 55.84089 | 17.08094 | 37870 ft | 403 kts | 224° |
| 2026-05-04 09:19 | 55.79911 | 17.01445 | 37868 ft | 403 kts | 224° |
| 2026-05-04 09:20 | 55.75734 | 16.94821 | 37876 ft | 403 kts | 224° |
| 2026-05-04 09:20 | 55.71582 | 16.88249 | 37874 ft | 402 kts | 224° |
| 2026-05-04 09:21 | 55.67408 | 16.81655 | 37853 ft | 402 kts | 224° |
| 2026-05-04 09:21 | 55.63229 | 16.75088 | 37867 ft | 401 kts | 224° |
| 2026-05-04 09:22 | 55.59054 | 16.68542 | 37877 ft | 401 kts | 224° |
| 2026-05-04 09:22 | 55.54874 | 16.62011 | 37880 ft | 401 kts | 223° |
| 2026-05-04 09:23 | 55.50697 | 16.55499 | 37880 ft | 401 kts | 223° |
| 2026-05-04 09:23 | 55.46509 | 16.49003 | 37891 ft | 401 kts | 223° |
| 2026-05-04 09:25 | 55.29779 | 16.23186 | 37904 ft | 401 kts | 223° |
| 2026-05-04 09:26 | 55.25577 | 16.16758 | 37907 ft | 401 kts | 223° |
| 2026-05-04 09:26 | 55.21377 | 16.10345 | 37895 ft | 401 kts | 223° |
| 2026-05-04 09:27 | 55.17171 | 16.03946 | 37908 ft | 401 kts | 223° |
| 2026-05-04 09:27 | 55.12962 | 15.97560 | 37910 ft | 400 kts | 223° |
| 2026-05-04 09:28 | 55.08756 | 15.91183 | 37913 ft | 400 kts | 223° |
| 2026-05-04 09:28 | 55.04543 | 15.84820 | 37919 ft | 400 kts | 223° |
| 2026-05-04 09:29 | 55.00326 | 15.78480 | 37921 ft | 400 kts | 223° |
| 2026-05-04 09:29 | 54.96103 | 15.72151 | 37930 ft | 400 kts | 223° |
| 2026-05-04 09:30 | 54.91879 | 15.65835 | 37928 ft | 400 kts | 223° |
| 2026-05-04 09:30 | 54.87658 | 15.59621 | 37940 ft | 400 kts | 222° |
| 2026-05-04 09:31 | 54.83356 | 15.53389 | 37937 ft | 400 kts | 222° |
| 2026-05-04 09:31 | 54.79074 | 15.47219 | 37927 ft | 400 kts | 222° |
| 2026-05-04 09:32 | 54.74824 | 15.41097 | 37938 ft | 400 kts | 222° |
| 2026-05-04 09:34 | 54.57729 | 15.16574 | 37960 ft | 399 kts | 221° |
| 2026-05-04 09:34 | 54.53445 | 15.10478 | 37931 ft | 399 kts | 221° |
| 2026-05-04 09:35 | 54.49158 | 15.04390 | 37941 ft | 400 kts | 221° |
| 2026-05-04 09:35 | 54.44864 | 14.98316 | 37942 ft | 400 kts | 221° |
| 2026-05-04 09:37 | 54.27644 | 14.74108 | 37948 ft | 401 kts | 221° |
| 2026-05-04 09:38 | 54.23321 | 14.68082 | 37959 ft | 401 kts | 221° |
| 2026-05-04 09:38 | 54.18998 | 14.62047 | 37962 ft | 401 kts | 221° |
| 2026-05-04 09:39 | 54.14665 | 14.56029 | 37968 ft | 402 kts | 221° |
| 2026-05-04 09:39 | 54.10324 | 14.50028 | 37950 ft | 402 kts | 221° |
| 2026-05-04 09:40 | 54.05976 | 14.44025 | 37958 ft | 402 kts | 221° |
| 2026-05-04 09:40 | 54.01624 | 14.38031 | 37964 ft | 403 kts | 221° |
| 2026-05-04 09:42 | 53.83716 | 14.15093 | 37957 ft | 405 kts | 215° |
| 2026-05-04 09:43 | 53.78961 | 14.09952 | 37965 ft | 406 kts | 215° |
| 2026-05-04 09:43 | 53.74202 | 14.04803 | 37968 ft | 406 kts | 215° |
| 2026-05-04 09:44 | 53.69445 | 13.99658 | 37974 ft | 406 kts | 215° |
| 2026-05-04 09:46 | 53.50388 | 13.79234 | 37981 ft | 407 kts | 215° |
| 2026-05-04 09:46 | 53.45613 | 13.74149 | 37983 ft | 407 kts | 214° |
| 2026-05-04 09:47 | 53.40832 | 13.69073 | 37967 ft | 406 kts | 214° |
| 2026-05-04 09:49 | 53.21680 | 13.48876 | 37963 ft | 407 kts | 214° |
| 2026-05-04 09:51 | 53.04860 | 13.31321 | 38001 ft | 408 kts | 214° |
| 2026-05-04 09:51 | 53.00049 | 13.26317 | 37992 ft | 408 kts | 214° |
| 2026-05-04 09:52 | 52.95233 | 13.21334 | 37977 ft | 408 kts | 214° |
| 2026-05-04 09:52 | 52.90415 | 13.16360 | 37976 ft | 408 kts | 214° |
| 2026-05-04 09:53 | 52.85584 | 13.11387 | 37975 ft | 409 kts | 214° |
| 2026-05-04 09:53 | 52.80749 | 13.06423 | 37980 ft | 409 kts | 214° |
| 2026-05-04 09:54 | 52.75916 | 13.01465 | 37987 ft | 409 kts | 214° |
| 2026-05-04 09:54 | 52.71072 | 12.96509 | 37985 ft | 409 kts | 214° |
| 2026-05-04 09:55 | 52.66260 | 12.91609 | 37980 ft | 409 kts | 214° |
| 2026-05-04 09:55 | 52.61412 | 12.86690 | 37982 ft | 409 kts | 214° |
| 2026-05-04 09:56 | 52.56566 | 12.81773 | 37985 ft | 409 kts | 214° |
| 2026-05-04 09:56 | 52.51710 | 12.76878 | 37972 ft | 409 kts | 214° |
| 2026-05-04 09:57 | 52.46858 | 12.71993 | 37981 ft | 409 kts | 214° |
| 2026-05-04 09:57 | 52.42012 | 12.67107 | 37985 ft | 409 kts | 214° |
| 2026-05-04 09:58 | 52.37032 | 12.62593 | 37984 ft | 410 kts | 209° |
| 2026-05-04 09:58 | 52.31914 | 12.58462 | 37970 ft | 410 kts | 209° |
| 2026-05-04 10:00 | 52.12309 | 12.42672 | 37992 ft | 410 kts | 208° |
| 2026-05-04 10:04 | 51.76533 | 12.14097 | 38020 ft | 408 kts | 210° |
| 2026-05-04 10:04 | 51.71482 | 12.09906 | 38016 ft | 408 kts | 210° |
| 2026-05-04 10:05 | 51.66461 | 12.05786 | 38021 ft | 408 kts | 210° |
| 2026-05-04 10:05 | 51.61401 | 12.01653 | 38014 ft | 408 kts | 210° |
| 2026-05-04 10:06 | 51.56338 | 11.97535 | 38017 ft | 408 kts | 210° |
| 2026-05-04 10:06 | 51.51270 | 11.93434 | 38022 ft | 408 kts | 210° |
| 2026-05-04 10:08 | 51.33543 | 11.79114 | 38025 ft | 408 kts | 210° |
| 2026-05-04 10:08 | 51.28471 | 11.75055 | 38031 ft | 408 kts | 210° |
| 2026-05-04 10:09 | 51.23403 | 11.70990 | 38030 ft | 408 kts | 210° |
| 2026-05-04 10:09 | 51.18331 | 11.66939 | 38015 ft | 408 kts | 209° |
| 2026-05-04 10:10 | 51.13262 | 11.62886 | 38022 ft | 407 kts | 209° |
| 2026-05-04 10:10 | 51.08189 | 11.58856 | 38027 ft | 407 kts | 209° |
| 2026-05-04 10:11 | 51.03150 | 11.54869 | 38025 ft | 407 kts | 209° |
| 2026-05-04 10:11 | 50.98071 | 11.50862 | 38022 ft | 407 kts | 209° |
| 2026-05-04 10:12 | 50.92995 | 11.46865 | 38022 ft | 407 kts | 209° |
| 2026-05-04 10:12 | 50.87925 | 11.42867 | 38024 ft | 407 kts | 209° |
| 2026-05-04 10:13 | 50.82853 | 11.38871 | 38024 ft | 407 kts | 209° |
| 2026-05-04 10:13 | 50.77775 | 11.34889 | 38006 ft | 407 kts | 209° |
| 2026-05-04 10:14 | 50.72690 | 11.30932 | 38000 ft | 408 kts | 209° |
| 2026-05-04 10:16 | 50.52360 | 11.15142 | 38043 ft | 407 kts | 209° |
| 2026-05-04 10:16 | 50.47279 | 11.11219 | 38040 ft | 407 kts | 209° |
| 2026-05-04 10:17 | 50.42199 | 11.07312 | 38044 ft | 407 kts | 209° |
| 2026-05-04 10:19 | 50.21838 | 10.91727 | 38025 ft | 408 kts | 209° |
| 2026-05-04 10:19 | 50.16732 | 10.87833 | 38025 ft | 409 kts | 209° |
| 2026-05-04 10:20 | 50.11615 | 10.83949 | 38017 ft | 409 kts | 208° |
| 2026-05-04 10:20 | 50.06494 | 10.80087 | 38032 ft | 409 kts | 208° |
| 2026-05-04 10:21 | 50.01371 | 10.76221 | 38029 ft | 409 kts | 208° |
| 2026-05-04 10:21 | 49.96252 | 10.72351 | 38032 ft | 409 kts | 208° |
| 2026-05-04 10:22 | 49.88574 | 10.66568 | 38040 ft | 409 kts | 208° |
| 2026-05-04 10:23 | 49.83458 | 10.62743 | 38046 ft | 408 kts | 208° |
| 2026-05-04 10:25 | 49.62492 | 10.49561 | 38041 ft | 408 kts | 202° |
| 2026-05-04 10:25 | 49.57127 | 10.46671 | 38045 ft | 408 kts | 202° |
| 2026-05-04 10:26 | 49.51772 | 10.43781 | 38046 ft | 408 kts | 202° |
| 2026-05-04 10:26 | 49.46412 | 10.40902 | 38042 ft | 408 kts | 202° |
| 2026-05-04 10:27 | 49.41049 | 10.38035 | 38044 ft | 408 kts | 201° |
| 2026-05-04 10:27 | 49.35686 | 10.35189 | 38047 ft | 408 kts | 201° |
| 2026-05-04 10:28 | 49.30364 | 10.32359 | 38051 ft | 408 kts | 201° |
| 2026-05-04 10:28 | 49.24999 | 10.29511 | 38047 ft | 408 kts | 201° |
| 2026-05-04 10:29 | 49.19629 | 10.26657 | 38047 ft | 409 kts | 201° |
| 2026-05-04 10:29 | 49.14553 | 10.22906 | 38038 ft | 405 kts | 217° |
| 2026-05-04 10:30 | 49.10608 | 10.16855 | 38053 ft | 403 kts | 231° |
| 2026-05-04 10:30 | 49.07096 | 10.10188 | 38033 ft | 403 kts | 231° |
| 2026-05-04 10:31 | 49.03570 | 10.03534 | 38027 ft | 404 kts | 231° |
| 2026-05-04 10:32 | 48.91185 | 9.80267 | 38034 ft | 404 kts | 231° |
| 2026-05-04 10:33 | 48.87627 | 9.73645 | 38030 ft | 404 kts | 231° |
| 2026-05-04 10:33 | 48.84075 | 9.67018 | 38027 ft | 404 kts | 231° |
| 2026-05-04 10:34 | 48.80526 | 9.60404 | 38044 ft | 404 kts | 231° |
| 2026-05-04 10:34 | 48.76993 | 9.53854 | 38034 ft | 404 kts | 230° |
| 2026-05-04 10:35 | 48.73432 | 9.47280 | 38035 ft | 403 kts | 230° |
| 2026-05-04 10:35 | 48.69871 | 9.40711 | 38032 ft | 403 kts | 230° |
| 2026-05-04 10:36 | 48.66312 | 9.34156 | 38032 ft | 403 kts | 231° |
| 2026-05-04 10:36 | 48.62746 | 9.27602 | 38034 ft | 404 kts | 231° |
| 2026-05-04 10:37 | 48.59304 | 9.20902 | 38031 ft | 404 kts | 234° |
| 2026-05-04 10:37 | 48.56096 | 9.13941 | 38032 ft | 404 kts | 235° |
| 2026-05-04 10:39 | 48.44770 | 8.89810 | 38040 ft | 402 kts | 234° |
| 2026-05-04 10:40 | 48.41510 | 8.82977 | 38035 ft | 402 kts | 234° |
| 2026-05-04 10:40 | 48.38248 | 8.76150 | 38037 ft | 402 kts | 234° |
| 2026-05-04 10:41 | 48.34978 | 8.69341 | 38035 ft | 401 kts | 234° |
| 2026-05-04 10:41 | 48.31704 | 8.62542 | 38026 ft | 401 kts | 234° |
| 2026-05-04 10:42 | 48.28436 | 8.55749 | 38038 ft | 402 kts | 233° |
| 2026-05-04 10:42 | 48.25153 | 8.48961 | 38037 ft | 402 kts | 233° |
| 2026-05-04 10:43 | 48.21865 | 8.42182 | 38032 ft | 402 kts | 233° |
| 2026-05-04 10:44 | 48.07461 | 8.22921 | 38027 ft | 402 kts | 214° |
| 2026-05-04 10:45 | 48.05106 | 8.20656 | 38029 ft | 403 kts | 214° |
| 2026-05-04 10:45 | 48.00394 | 8.16125 | 38029 ft | 403 kts | 214° |
| 2026-05-04 10:46 | 47.95711 | 8.11631 | 38029 ft | 403 kts | 214° |
| 2026-05-04 10:46 | 47.90997 | 8.07103 | 38020 ft | 403 kts | 214° |
| 2026-05-04 10:47 | 47.86279 | 8.02593 | 38022 ft | 403 kts | 213° |
| 2026-05-04 10:47 | 47.81556 | 7.98091 | 38026 ft | 403 kts | 213° |
| 2026-05-04 10:49 | 47.62633 | 7.80155 | 36788 ft | 404 kts | 213° |
| 2026-05-04 10:49 | 47.60260 | 7.77915 | 36078 ft | 405 kts | 213° |
| 2026-05-04 10:50 | 47.57880 | 7.75670 | 35337 ft | 407 kts | 213° |
| 2026-05-04 10:51 | 47.42192 | 7.60944 | 31414 ft | 387 kts | 213° |
| 2026-05-04 10:52 | 47.39929 | 7.58833 | 30905 ft | 383 kts | 213° |
| 2026-05-04 10:52 | 47.37690 | 7.56746 | 30405 ft | 379 kts | 213° |
| 2026-05-04 10:52 | 47.35472 | 7.54681 | 29886 ft | 375 kts | 213° |
| 2026-05-04 10:54 | 47.20647 | 7.40899 | 26660 ft | 349 kts | 212° |
| 2026-05-04 10:54 | 47.18597 | 7.38999 | 26225 ft | 348 kts | 212° |
| 2026-05-04 10:56 | 47.07619 | 7.20683 | 23038 ft | 336 kts | 230° |
| 2026-05-04 10:56 | 47.06164 | 7.18017 | 22589 ft | 333 kts | 230° |
| 2026-05-04 10:56 | 47.04727 | 7.15383 | 22169 ft | 330 kts | 230° |
| 2026-05-04 10:57 | 47.03297 | 7.12764 | 21729 ft | 328 kts | 230° |
| 2026-05-04 10:57 | 47.01880 | 7.10169 | 21276 ft | 325 kts | 230° |
| 2026-05-04 10:57 | 47.00470 | 7.07584 | 20820 ft | 324 kts | 230° |
| 2026-05-04 10:57 | 46.99066 | 7.05011 | 20380 ft | 322 kts | 230° |
| 2026-05-04 10:58 | 46.97668 | 7.02453 | 19931 ft | 321 kts | 230° |
| 2026-05-04 10:58 | 46.96270 | 6.99904 | 19480 ft | 320 kts | 230° |
| 2026-05-04 10:58 | 46.94874 | 6.97367 | 19034 ft | 320 kts | 230° |
| 2026-05-04 10:58 | 46.93477 | 6.94834 | 18602 ft | 320 kts | 230° |
| 2026-05-04 10:59 | 46.92081 | 6.92295 | 18130 ft | 320 kts | 230° |
| 2026-05-04 10:59 | 46.90690 | 6.89762 | 17665 ft | 319 kts | 230° |
| 2026-05-04 10:59 | 46.89308 | 6.87243 | 17229 ft | 317 kts | 230° |
| 2026-05-04 10:59 | 46.87930 | 6.84735 | 16795 ft | 315 kts | 230° |
| 2026-05-04 11:00 | 46.86559 | 6.82243 | 16361 ft | 314 kts | 230° |
| 2026-05-04 11:01 | 46.77011 | 6.65010 | 13246 ft | 310 kts | 230° |
| 2026-05-04 11:02 | 46.75677 | 6.62610 | 12816 ft | 307 kts | 229° |
| 2026-05-04 11:02 | 46.74334 | 6.60196 | 12379 ft | 306 kts | 229° |
| 2026-05-04 11:05 | 46.49093 | 6.45887 | 7612 ft | 256 kts | 198° |
| 2026-05-04 11:06 | 46.47415 | 6.45064 | 7320 ft | 252 kts | 201° |
| 2026-05-04 11:06 | 46.45988 | 6.43703 | 7149 ft | 243 kts | 222° |
| 2026-05-04 11:06 | 46.44816 | 6.41970 | 6874 ft | 238 kts | 224° |
| 2026-05-04 11:06 | 46.43676 | 6.40250 | 6578 ft | 235 kts | 224° |
| 2026-05-04 11:08 | 46.36152 | 6.29094 | 4559 ft | 202 kts | 224° |
| 2026-05-04 11:10 | 46.30182 | 6.20280 | 2889 ft | 158 kts | 225° |
| 2026-05-04 11:12 | 46.25568 | 6.13492 | 1576 ft | 125 kts | 226° |
| 2026-05-04 11:12 | 46.24959 | 6.12596 | 1399 ft | 125 kts | 226° |
| 2026-05-04 11:12 | 46.24436 | 6.11819 | 1372 ft | 86 kts | 225° |
| 2026-05-04 11:12 | 46.24135 | 6.11380 | 1374 ft | 39 kts | 225° |
| 2026-05-04 11:13 | 46.23969 | 6.11138 | 1379 ft | 30 kts | 225° |
| 2026-05-04 11:13 | 46.23816 | 6.11076 | 1380 ft | 20 kts | 175° |
| 2026-05-04 11:13 | 46.23710 | 6.11075 | 1386 ft | 11 kts | 204° |
| 2026-05-04 11:13 | 46.23672 | 6.11031 | 1386 ft | 4 kts | 224° |
| 2026-05-04 11:14 | 46.23651 | 6.11000 | 1388 ft | 5 kts | 225° |
| 2026-05-04 11:14 | 46.23616 | 6.10949 | 1388 ft | 9 kts | 225° |
| 2026-05-04 11:14 | 46.23566 | 6.10877 | 1391 ft | 12 kts | 225° |
| 2026-05-04 11:16 | 46.23341 | 6.10666 | 1403 ft | 0 kts | 270° |